Monticello Municipal Ellis Field
KLLQ : now visible

Airfield :











YOU CAN JOIN US ON...

 
LOGIN :

Register | Disclaimer

   EN    FR    IT 

 









Legend :    VFR   Marginal VFR   IFR   Intensive IFR   Very Intensive IFR
Visi :
Ceiling :
>= 8 km
>= 3000ft
5 to 8 km
1000 to 3000 ft
1500m to 5 km
500 to 1000 ft
800 to 1500m
200 to 500 ft
< 800m
< 200 ft
Symbols :   Thunderstorms  Fog  Heavy snow  Heavy precipitations  Wind > 20 kt






- Airport Elevation : 270 ft


KLLQ - Monticello Municipal Ellis Field

CURRENT METAR :
  • 211953Z AUTO VRB03KT 10SM CLR 14/M05 A3026 RMK AO2 SLP245 T01441050

EXPIRED METARs :
  • 211853Z AUTO 03007KT 320V060 10SM CLR 14/M04 A3028 RMK AO2 SLP254 T01391044
  • 211753Z AUTO 04007KT 10SM CLR 13/M04 A3031 RMK AO2 SLP262 T01331039 10133 20022 58014
  • 211653Z AUTO VRB06KT 10SM CLR 12/M04 A3034 RMK AO2 SLP273 T01221039

TAF KLLQ
Valid from the 21 at 18:00 until the 22 at 18:00 UTC


211720Z 2118/2218 34007KT P6SM SKC
FM220000 VRB03KT P6SM BKN250
KZME FIR / North America



MET'MAP, your aeronautical weather chart ! - Copyright ORBIFLY December 2007 - Disclaimer

ORBIFLY MET'MAP TEAM :

Programming & Development : Alexandra Zaïnal
Concept & original design : Baudouin d'Aumeries
Assistance for programming : Marc-Olivier Méhu
Technical & hardware support : Manuel Goepfert

Contact : metmap@orbifly.com




SOURCES & CREDITS :

   NOAA       Earth
Advisory